Time;durP1;ratioP1;P1;durP2;ratioP2;P2;SDS_P1;SDS_P2;PMS_P1;PMS_P2;Temp;Humidity;BMP_temperature;BMP_pressure;BME280_temperature;BME280_humidity;BME280_pressure;Samples;Min_cycle;Max_cycle;Signal;HPM_P1;HPM_P2
2023/05/08 00:01:08;;;;;;;;;6.50;5.00;;;;;14.08;71.43;101179.19;5080589;27;45380;-74
2023/05/08 00:03:34;;;;;;;;;3.00;3.00;;;;;13.97;71.39;101159.66;5069951;28;45466;-73
2023/05/08 00:06:04;;;;;;;;;5.00;4.50;;;;;14.04;71.68;101165.94;5074287;28;46289;-73
2023/05/08 00:08:30;;;;;;;;;4.00;4.00;;;;;13.77;71.78;101146.00;5076028;27;45448;-73
2023/05/08 00:10:55;;;;;;;;;4.50;4.00;;;;;14.03;71.27;101193.94;5076090;27;45657;-74
2023/05/08 00:13:21;;;;;;;;;4.75;3.25;;;;;13.97;70.58;101183.28;5076457;28;45582;-73
2023/05/08 00:15:46;;;;;;;;;5.25;3.25;;;;;13.95;71.79;101192.88;5075553;28;46165;-73
2023/05/08 00:18:12;;;;;;;;;4.50;3.75;;;;;13.88;72.11;101190.91;5076006;27;45365;-75
2023/05/08 00:20:37;;;;;;;;;4.00;4.00;;;;;13.85;71.39;101178.59;5075938;28;45405;-72
2023/05/08 00:23:03;;;;;;;;;6.00;4.00;;;;;13.79;71.77;101169.69;5082762;27;45329;-73
2023/05/08 00:25:30;;;;;;;;;3.00;3.00;;;;;13.87;71.74;101181.28;5075508;27;46375;-73
2023/05/08 00:27:56;;;;;;;;;8.50;4.75;;;;;13.69;71.83;101152.78;5075794;27;45574;-73
2023/05/08 00:30:22;;;;;;;;;3.25;3.00;;;;;13.83;72.19;101169.78;5072812;28;45524;-75
2023/05/08 00:32:48;;;;;;;;;4.50;4.00;;;;;13.78;71.89;101160.00;5075010;27;45508;-75
2023/05/08 00:35:13;;;;;;;;;3.00;2.50;;;;;13.70;71.70;101146.66;5074076;28;45786;-74
2023/05/08 00:37:40;;;;;;;;;5.00;3.75;;;;;13.78;71.22;101146.88;5076084;27;45833;-75
2023/05/08 00:40:10;;;;;;;;;5.50;4.00;;;;;13.81;71.33;101157.47;5076564;28;45541;-71
2023/05/08 00:42:36;;;;;;;;;2.00;2.00;;;;;13.84;71.91;101168.03;5080533;27;45465;-73
2023/05/08 00:45:02;;;;;;;;;3.00;2.75;;;;;13.57;71.90;101121.84;5075902;28;46231;-74
2023/05/08 00:47:29;;;;;;;;;3.00;2.00;;;;;13.57;71.49;101121.84;5076188;27;45366;-73
2023/05/08 00:49:55;;;;;;;;;3.00;2.00;;;;;13.66;71.19;101134.31;5073745;28;45375;-74
2023/05/08 00:52:21;;;;;;;;;2.25;2.00;;;;;13.71;71.65;101146.72;5074640;28;45547;-73
2023/05/08 00:54:47;;;;;;;;;3.00;3.00;;;;;13.63;71.30;101135.13;5083093;27;46434;-73
2023/05/08 00:57:15;;;;;;;;;4.75;3.75;;;;;13.60;71.42;101147.28;5074488;28;45381;-74
2023/05/08 00:59:44;;;;;;;;;3.00;2.25;;;;;13.46;72.21;101150.41;5074768;28;45531;-75
2023/05/08 01:02:10;;;;;;;;;4.00;3.25;;;;;13.51;71.66;101147.91;5074540;28;45551;-73
2023/05/08 01:04:36;;;;;;;;;3.00;2.00;;;;;13.56;71.74;101159.41;5074028;28;45613;-73
2023/05/08 01:07:02;;;;;;;;;5.00;4.00;;;;;13.49;71.88;101145.25;5075625;27;45483;-72
2023/05/08 01:09:28;;;;;;;;;4.00;4.00;;;;;13.63;71.71;101155.25;5072356;28;45221;-73
2023/05/08 01:12:02;;;;;;;;;2.75;2.75;;;;;13.68;71.62;101151.88;5055761;28;45820;-75
2023/05/08 01:15:02;;;;;;;;;4.00;2.75;;;;;13.71;71.24;101162.47;5057300;28;45401;-75
2023/05/08 01:17:52;;;;;;;;;3.50;3.50;;;;;13.73;70.44;101152.03;5057358;28;45555;-75
2023/05/08 01:20:18;;;;;;;;;2.75;2.00;;;;;13.71;70.38;101156.34;5055676;28;45473;-75
2023/05/08 01:22:46;;;;;;;;;4.50;3.50;;;;;13.69;71.22;101150.16;5056896;28;45457;-75
2023/05/08 01:25:30;;;;;;;;;4.25;3.00;;;;;13.63;71.26;101153.50;5075314;28;45703;-75
2023/05/08 01:28:35;;;;;;;;;3.00;3.00;;;;;13.62;71.29;101159.59;5093167;27;45388;-73
2023/05/08 01:31:31;;;;;;;;;2.50;2.00;;;;;13.60;70.79;101153.41;5054434;28;45604;-73
2023/05/08 01:34:10;;;;;;;;;2.00;2.00;;;;;13.52;71.40;101160.19;5076023;28;45413;-73
2023/05/08 01:36:47;;;;;;;;;1.50;1.50;;;;;13.45;70.86;101139.84;5077026;28;46234;-73
2023/05/08 01:39:38;;;;;;;;;4.75;3.75;;;;;13.46;71.20;101144.28;5075659;27;45494;-73
2023/05/08 01:42:17;;;;;;;;;6.00;3.00;;;;;13.42;71.68;101139.78;5075866;28;45480;-73
2023/05/08 01:45:09;;;;;;;;;3.00;2.75;;;;;13.48;72.16;101151.31;5077328;28;45520;-73
2023/05/08 01:47:37;;;;;;;;;4.00;3.00;;;;;13.45;71.91;101139.84;5076999;28;45287;-73
2023/05/08 01:50:07;;;;;;;;;4.00;2.50;;;;;13.59;71.80;101156.91;5075329;28;45513;-73
2023/05/08 01:52:44;;;;;;;;;3.25;2.50;;;;;13.61;72.19;101142.06;5076779;28;45237;-74
2023/05/08 01:55:15;;;;;;;;;2.00;2.00;;;;;13.81;71.25;101153.09;5075736;28;45539;-74
2023/05/08 01:57:47;;;;;;;;;3.00;2.00;;;;;13.84;71.10;101145.28;5075417;28;46371;-75
2023/05/08 02:00:15;;;;;;;;;2.50;2.50;;;;;13.90;70.78;101141.94;5077124;28;45535;-74
2023/05/08 02:02:41;;;;;;;;;3.25;1.25;;;;;13.88;70.49;101135.75;5077212;28;45543;-73
2023/05/08 02:05:08;;;;;;;;;3.50;3.00;;;;;13.71;71.43;101109.97;5079563;27;45524;-74
2023/05/08 02:07:38;;;;;;;;;5.75;3.00;;;;;13.83;71.34;101127.78;5079110;28;45305;-74
2023/05/08 02:10:06;;;;;;;;;4.00;3.67;;;;;13.92;70.96;101125.38;5078166;28;45532;-74
2023/05/08 02:12:34;;;;;;;;;3.00;2.00;;;;;14.05;70.66;101141.47;5079392;28;45366;-73
2023/05/08 02:15:02;;;;;;;;;4.00;3.50;;;;;13.76;71.39;101091.69;5079487;27;45274;-73
2023/05/08 02:17:29;;;;;;;;;4.50;3.00;;;;;13.92;71.10;101135.00;5078786;28;45485;-74
2023/05/08 02:19:58;;;;;;;;;3.00;2.75;;;;;13.77;71.62;101131.94;5079492;27;45575;-73
2023/05/08 02:22:25;;;;;;;;;3.25;3.00;;;;;13.63;71.67;101121.13;5079071;28;45838;-73
2023/05/08 02:24:54;;;;;;;;;4.50;3.00;;;;;13.61;71.56;101123.69;5079498;28;45265;-74
2023/05/08 02:27:26;;;;;;;;;8.75;4.00;;;;;13.71;72.39;101136.22;5078934;28;45569;-75
2023/05/08 02:29:54;;;;;;;;;4.00;3.00;;;;;13.62;72.81;101124.56;5079214;28;45293;-75
2023/05/08 02:32:24;;;;;;;;;4.00;3.00;;;;;13.65;73.13;101143.94;5078134;28;45434;-74
2023/05/08 02:34:51;;;;;;;;;3.75;2.75;;;;;13.58;72.37;101117.47;5078579;28;45510;-74
2023/05/08 02:37:20;;;;;;;;;3.00;2.00;;;;;13.52;72.79;101102.44;5078950;28;45484;-74
2023/05/08 02:39:48;;;;;;;;;7.00;3.25;;;;;13.61;72.77;101121.06;5078951;27;45484;-74
2023/05/08 02:42:14;;;;;;;;;2.75;2.75;;;;;13.54;72.37;101095.50;5078947;28;45559;-74
2023/05/08 02:44:40;;;;;;;;;4.67;3.00;;;;;13.71;72.17;101103.81;5078736;28;45646;-74
2023/05/08 02:47:20;;;;;;;;;3.75;3.00;;;;;13.99;71.89;101136.94;5074068;28;46720;-75
2023/05/08 02:50:00;;;;;;;;;3.00;2.00;;;;;14.04;71.99;101139.66;5071795;28;45462;-74
2023/05/08 02:52:33;;;;;;;;;4.00;2.25;;;;;13.99;71.66;101129.06;5078438;27;45527;-74
2023/05/08 02:55:35;;;;;;;;;2.67;2.00;;;;;13.71;72.12;101088.06;5078990;28;45471;-73
2023/05/08 02:58:30;;;;;;;;;3.00;3.00;;;;;13.93;71.45;101128.91;5075474;27;45715;-75
2023/05/08 03:01:06;;;;;;;;;3.00;3.00;;;;;13.89;72.35;101129.69;5078717;28;45467;-75
2023/05/08 03:03:40;;;;;;;;;3.67;3.00;;;;;13.88;72.82;101135.75;5079224;28;45407;-74
2023/05/08 03:06:15;;;;;;;;;2.00;2.00;;;;;13.90;72.84;101120.94;5074324;27;45198;-74
2023/05/08 03:08:42;;;;;;;;;3.00;2.00;;;;;14.04;72.48;101119.53;5066170;28;47705;-75
2023/05/08 03:11:13;;;;;;;;;2.00;2.00;;;;;14.16;72.17;101120.69;5075697;28;45532;-74
2023/05/08 03:13:42;;;;;;;;;2.25;2.25;;;;;14.10;72.24;101106.53;5077931;28;45512;-74
2023/05/08 03:16:13;;;;;;;;;3.00;2.00;;;;;14.24;72.19;101113.88;5073868;28;45338;-74
2023/05/08 03:18:53;;;;;;;;;5.00;2.00;;;;;14.24;72.00;101084.97;5069359;28;45254;-74
2023/05/08 03:21:21;;;;;;;;;2.00;2.00;;;;;14.30;71.87;101090.38;5078093;28;45437;-74
2023/05/08 03:23:50;;;;;;;;;2.67;2.00;;;;;14.44;71.33;101098.59;5078749;28;45441;-73
2023/05/08 03:26:18;;;;;;;;;4.33;3.00;;;;;14.33;71.44;101079.94;5078411;28;45257;-74
2023/05/08 03:28:48;;;;;;;;;3.50;2.75;;;;;14.29;71.67;101091.25;5077170;28;46216;-76
2023/05/08 03:31:17;;;;;;;;;4.00;3.00;;;;;14.26;71.65;101091.16;5068459;28;45370;-75
2023/05/08 03:33:44;;;;;;;;;4.00;4.00;;;;;14.33;71.64;101103.59;5070601;28;45329;-74
2023/05/08 03:36:10;;;;;;;;;4.33;4.00;;;;;14.23;70.91;101098.97;5077455;27;45318;-74
2023/05/08 03:38:36;;;;;;;;;4.00;2.67;;;;;14.20;70.93;101110.28;5078205;28;45932;-74
2023/05/08 03:41:02;;;;;;;;;4.00;3.00;;;;;14.12;70.79;101089.09;5077336;28;45433;-75
2023/05/08 03:43:30;;;;;;;;;3.00;2.00;;;;;14.29;70.62;101109.63;5076766;28;45580;-74
2023/05/08 03:45:56;;;;;;;;;5.00;3.67;;;;;14.10;71.84;101077.66;5077479;27;45283;-74
2023/05/08 03:48:23;;;;;;;;;4.33;3.00;;;;;14.23;71.86;101091.97;5077826;28;45998;-74
2023/05/08 03:50:52;;;;;;;;;3.00;1.67;;;;;14.18;71.16;101071.69;5077592;28;45505;-75
2023/05/08 03:53:17;;;;;;;;;3.00;3.00;;;;;14.28;71.09;101073.69;5077678;28;45544;-74
2023/05/08 03:55:43;;;;;;;;;4.00;2.67;;;;;14.38;71.10;101087.94;5077718;28;45338;-74
2023/05/08 03:58:27;;;;;;;;;5.00;2.00;;;;;14.42;71.99;101090.66;5070763;28;46693;-74
2023/05/08 04:01:05;;;;;;;;;3.00;3.00;;;;;14.37;71.03;101088.81;5070583;28;45623;-74
2023/05/08 04:03:54;;;;;;;;;4.00;2.67;;;;;14.19;72.40;101084.88;5075372;28;45456;-74
2023/05/08 04:06:33;;;;;;;;;3.67;2.00;;;;;14.31;72.16;101097.41;5077478;28;45539;-74
2023/05/08 04:09:16;;;;;;;;;4.33;3.67;;;;;14.22;72.56;101068.28;5077524;28;46040;-75
2023/05/08 04:11:55;;;;;;;;;4.00;3.33;;;;;14.41;72.20;101082.75;5077329;28;45434;-74
2023/05/08 04:14:25;;;;;;;;;3.00;1.00;;;;;14.31;71.89;101050.13;5077234;28;45314;-73
2023/05/08 04:16:55;;;;;;;;;3.00;3.00;;;;;14.46;72.26;101075.84;5076235;28;45496;-74
2023/05/08 04:19:27;;;;;;;;;3.50;2.25;;;;;14.40;72.24;101059.94;5076135;27;46634;-74
2023/05/08 04:21:58;;;;;;;;;3.00;2.25;;;;;14.51;72.23;101077.72;5076675;28;45386;-74
2023/05/08 04:24:27;;;;;;;;;2.33;2.33;;;;;14.60;71.80;101065.66;5062794;28;45561;-74
2023/05/08 04:26:53;;;;;;;;;4.33;3.67;;;;;14.49;71.82;101042.63;5074135;28;45451;-75
2023/05/08 04:29:19;;;;;;;;;3.00;3.00;;;;;14.61;71.84;101047.31;5076464;28;45409;-75
2023/05/08 04:31:45;;;;;;;;;4.00;2.33;;;;;14.60;71.88;101026.22;5076746;28;45460;-74
2023/05/08 04:34:11;;;;;;;;;2.33;2.00;;;;;14.73;71.59;101058.94;5075736;28;45281;-74
2023/05/08 04:36:37;;;;;;;;;6.67;3.00;;;;;14.62;72.29;101035.03;5075649;28;45454;-74
2023/05/08 04:39:03;;;;;;;;;3.33;3.00;;;;;14.53;72.85;101043.59;5076901;28;46335;-74
2023/05/08 04:41:29;;;;;;;;;2.33;2.33;;;;;14.57;72.19;101052.47;5076443;28;45471;-74
2023/05/08 04:43:54;;;;;;;;;3.00;3.00;;;;;14.59;71.98;101050.75;5071823;28;45297;-73
2023/05/08 04:46:20;;;;;;;;;4.00;3.00;;;;;14.59;71.96;101056.03;5077480;27;45534;-73
2023/05/08 04:48:45;;;;;;;;;3.00;2.33;;;;;14.64;72.80;101076.31;5068834;27;46416;-73
2023/05/08 04:51:11;;;;;;;;;3.67;3.00;;;;;14.47;72.75;101067.13;5077093;28;45459;-74
2023/05/08 04:53:36;;;;;;;;;5.00;4.00;;;;;14.47;72.25;101051.34;5076788;28;45325;-73
2023/05/08 04:56:02;;;;;;;;;3.33;2.00;;;;;14.60;72.46;101065.66;5075772;28;45607;-73
2023/05/08 04:58:27;;;;;;;;;7.00;3.00;;;;;14.67;72.41;101078.09;5076569;27;46530;-73
2023/05/08 05:00:53;;;;;;;;;8.50;7.75;;;;;14.56;72.87;101062.06;5076162;27;45724;-73
2023/05/08 05:03:19;;;;;;;;;6.25;5.00;;;;;14.59;73.09;101061.28;5075452;28;45696;-74
2023/05/08 05:05:44;;;;;;;;;7.25;4.00;;;;;14.59;72.73;101063.91;5077110;27;45379;-74
2023/05/08 05:08:10;;;;;;;;;4.00;3.00;;;;;14.41;73.39;101041.56;5076553;28;45420;-75
2023/05/08 05:10:38;;;;;;;;;4.00;3.00;;;;;14.58;73.42;101091.91;5075878;27;45479;-74
2023/05/08 05:13:03;;;;;;;;;5.00;4.25;;;;;14.60;73.51;101086.69;5076692;28;45386;-73
2023/05/08 05:15:29;;;;;;;;;7.75;5.75;;;;;14.53;73.75;101089.16;5061888;28;45530;-75
2023/05/08 05:17:57;;;;;;;;;5.00;4.00;;;;;14.44;73.40;101062.69;5073662;28;45944;-75
2023/05/08 05:20:23;;;;;;;;;5.67;4.67;;;;;14.67;72.90;101075.47;5074890;28;45564;-75
2023/05/08 05:22:48;;;;;;;;;6.00;3.00;;;;;14.82;72.47;101094.22;5076496;28;45602;-74
2023/05/08 05:25:14;;;;;;;;;7.00;4.00;;;;;14.87;72.02;101074.16;5076780;28;45542;-73
2023/05/08 05:27:39;;;;;;;;;4.00;3.67;;;;;15.06;71.53;101091.22;5075078;28;46264;-74
2023/05/08 05:30:06;;;;;;;;;4.75;3.00;;;;;15.05;71.45;101081.53;5074975;28;45503;-73
2023/05/08 05:32:31;;;;;;;;;5.00;4.00;;;;;15.15;71.22;101098.41;5076434;27;45441;-73
2023/05/08 05:34:57;;;;;;;;;3.00;2.75;;;;;15.08;71.11;101072.81;5077013;28;45411;-73
2023/05/08 05:37:23;;;;;;;;;3.67;3.00;;;;;15.09;71.29;101072.84;5078798;28;45526;-73
2023/05/08 05:39:48;;;;;;;;;3.00;2.00;;;;;15.28;70.53;101089.91;5079553;28;45311;-73
2023/05/08 05:42:14;;;;;;;;;2.00;1.67;;;;;15.30;70.13;101074.13;5080045;28;45523;-73
2023/05/08 05:44:39;;;;;;;;;3.00;2.00;;;;;15.53;69.69;101098.25;5080829;27;45531;-75
2023/05/08 05:47:08;;;;;;;;;4.00;3.00;;;;;15.67;69.72;101091.47;5080273;28;45496;-75
2023/05/08 05:49:34;;;;;;;;;3.00;3.00;;;;;15.79;69.41;101090.84;5080530;28;45264;-75
2023/05/08 05:52:00;;;;;;;;;3.00;2.33;;;;;15.95;69.49;101096.38;5080797;28;45373;-75
2023/05/08 05:54:25;;;;;;;;;3.00;2.00;;;;;16.19;69.24;101101.16;5079967;28;45517;-75
2023/05/08 05:56:51;;;;;;;;;6.00;3.67;;;;;16.38;68.38;101092.69;5079330;28;45653;-74
2023/05/08 05:59:16;;;;;;;;;3.67;3.67;;;;;16.50;67.93;101097.25;5079394;28;45330;-73
2023/05/08 06:01:41;;;;;;;;;5.00;4.00;;;;;16.74;67.22;101101.09;5078241;28;45382;-73
2023/05/08 06:04:07;;;;;;;;;5.00;3.00;;;;;16.88;66.85;101108.34;5079920;28;45391;-73
2023/05/08 06:06:32;;;;;;;;;5.33;4.00;;;;;17.06;66.25;101109.47;5077240;27;46284;-72
2023/05/08 06:08:58;;;;;;;;;5.67;2.67;;;;;17.13;66.24;101118.31;5076986;28;45401;-74
2023/05/08 06:11:24;;;;;;;;;5.00;4.00;;;;;16.99;66.58;101104.94;5078998;27;45404;-74
2023/05/08 06:13:50;;;;;;;;;5.67;3.00;;;;;17.01;66.26;101113.78;5077446;28;45614;-73
2023/05/08 06:16:15;;;;;;;;;3.00;2.00;;;;;17.04;66.27;101122.63;5078244;28;45433;-73
2023/05/08 06:18:40;;;;;;;;;3.33;3.00;;;;;16.90;65.98;101111.00;5078556;27;45544;-73
2023/05/08 06:21:06;;;;;;;;;3.00;3.00;;;;;16.98;66.23;101126.94;5079173;28;45491;-73
2023/05/08 06:23:32;;;;;;;;;5.00;3.00;;;;;17.02;66.06;101126.13;5079300;28;45583;-72
2023/05/08 06:25:58;;;;;;;;;5.67;4.00;;;;;16.90;66.31;101124.22;5077878;27;46394;-72
2023/05/08 06:28:24;;;;;;;;;3.00;2.00;;;;;16.88;66.38;101116.25;5077525;27;45421;-74
2023/05/08 06:30:51;;;;;;;;;5.00;3.33;;;;;17.05;65.73;101123.50;5077017;28;45411;-74
2023/05/08 06:33:16;;;;;;;;;3.00;3.00;;;;;17.26;65.69;101105.28;5077532;28;45606;-72
2023/05/08 06:35:46;;;;;;;;;5.00;3.67;;;;;17.68;65.13;101105.72;5077376;27;45772;-73
2023/05/08 06:38:12;;;;;;;;;5.00;4.00;;;;;18.05;63.60;101121.97;5078921;28;45475;-74
2023/05/08 06:40:41;;;;;;;;;4.00;3.33;;;;;18.23;62.96;101118.59;5077050;28;45639;-72
2023/05/08 06:43:07;;;;;;;;;5.00;3.67;;;;;18.62;61.89;101132.94;5078431;27;45535;-72
2023/05/08 06:45:33;;;;;;;;;2.00;2.00;;;;;18.68;61.18;101107.44;5077871;27;45607;-73
2023/05/08 06:47:58;;;;;;;;;4.67;2.67;;;;;19.10;60.86;101128.84;5078398;28;45500;-74
2023/05/08 06:50:24;;;;;;;;;4.33;3.33;;;;;19.23;58.80;101113.88;5078021;28;45351;-74
2023/05/08 06:52:50;;;;;;;;;3.67;3.00;;;;;19.61;58.63;101143.13;5077503;28;45585;-74
2023/05/08 06:55:16;;;;;;;;;8.33;6.00;;;;;19.66;58.04;101128.13;5077711;28;45634;-74
2023/05/08 06:57:41;;;;;;;;;4.67;4.00;;;;;19.84;57.50;101122.00;5077888;28;45575;-74
2023/05/08 07:00:08;;;;;;;;;4.33;4.00;;;;;20.07;56.78;101113.16;5077638;28;45377;-72
2023/05/08 07:02:34;;;;;;;;;6.33;5.00;;;;;20.52;56.08;101150.28;5077648;27;45458;-72
2023/05/08 07:04:59;;;;;;;;;6.00;4.33;;;;;20.76;55.53;101134.34;5073627;28;46121;-72
2023/05/08 07:07:25;;;;;;;;;2.33;2.00;;;;;20.81;55.97;101145.84;5077092;27;45434;-72
2023/05/08 07:09:50;;;;;;;;;3.00;2.00;;;;;20.86;56.48;101162.63;5073705;27;45425;-72
2023/05/08 07:12:16;;;;;;;;;4.00;2.00;;;;;20.84;56.26;101140.50;5075257;28;45369;-72
2023/05/08 07:14:42;;;;;;;;;4.00;4.00;;;;;20.97;54.93;101143.09;5077593;28;45496;-71
2023/05/08 07:17:08;;;;;;;;;3.00;2.00;;;;;20.83;55.90;101152.03;5077588;28;45468;-72
2023/05/08 07:19:37;;;;;;;;;3.33;2.33;;;;;21.20;55.37;101149.22;5076741;28;45388;-72
2023/05/08 07:22:04;;;;;;;;;4.00;4.00;;;;;21.24;55.23;101119.09;5077634;28;45687;-72
2023/05/08 07:24:30;;;;;;;;;5.33;4.00;;;;;21.64;53.95;101142.81;5076894;27;45543;-71
2023/05/08 07:26:55;;;;;;;;;3.00;2.00;;;;;21.94;53.77;101140.84;5075903;28;45683;-71
2023/05/08 07:29:21;;;;;;;;;4.00;3.00;;;;;22.27;52.71;101146.84;5077360;28;45712;-72
2023/05/08 07:31:47;;;;;;;;;4.00;3.00;;;;;22.64;52.74;101150.03;5077601;28;45381;-71
2023/05/08 07:34:13;;;;;;;;;3.67;2.67;;;;;22.97;52.15;101160.34;5076382;27;46349;-71
2023/05/08 07:36:39;;;;;;;;;4.67;4.00;;;;;23.23;50.35;101155.59;5077241;28;45448;-72
2023/05/08 07:39:05;;;;;;;;;4.00;3.00;;;;;23.74;49.06;101162.91;5105988;27;45398;-72
2023/05/08 07:41:31;;;;;;;;;4.00;3.33;;;;;24.17;47.25;101162.28;5077455;27;45301;-72
2023/05/08 07:43:56;;;;;;;;;3.00;3.00;;;;;24.36;46.89;101152.16;5077196;28;45579;-71
2023/05/08 07:46:22;;;;;;;;;2.67;2.00;;;;;24.63;46.98;101155.28;5076055;28;45512;-71
2023/05/08 07:48:47;;;;;;;;;3.00;2.00;;;;;24.67;44.50;101143.63;5077837;27;45444;-71
2023/05/08 07:51:13;;;;;;;;;2.00;2.00;;;;;25.02;45.39;101158.06;5077466;28;45656;-72
2023/05/08 07:53:39;;;;;;;;;4.33;3.33;;;;;24.97;44.76;101138.59;5076988;28;46735;-72
2023/05/08 07:56:05;;;;;;;;;1.67;1.67;;;;;25.79;43.28;101159.13;5076611;28;45405;-71
2023/05/08 07:58:30;;;;;;;;;2.00;2.00;;;;;26.52;42.91;101142.13;5076358;27;45487;-72
2023/05/08 08:00:56;;;;;;;;;2.00;1.33;;;;;28.72;40.67;101144.28;5077109;27;45455;-72
2023/05/08 08:03:22;;;;;;;;;2.00;1.00;;;;;28.39;38.90;101127.53;5076769;27;45555;-72
2023/05/08 08:05:47;;;;;;;;;3.00;2.33;;;;;27.72;40.31;101153.00;5076860;28;45465;-72
2023/05/08 08:08:13;;;;;;;;;1.33;1.33;;;;;27.43;41.41;101137.81;5076762;28;45520;-72
2023/05/08 08:10:38;;;;;;;;;3.00;2.00;;;;;27.91;39.35;101125.59;5076794;28;45381;-72
2023/05/08 08:13:04;;;;;;;;;4.67;3.00;;;;;30.38;35.50;101126.16;5072560;28;48020;-73
2023/05/08 08:15:30;;;;;;;;;2.00;1.67;;;;;29.68;36.12;101129.91;5074471;28;45463;-73
2023/05/08 08:17:56;;;;;;;;;1.33;1.00;;;;;28.85;37.51;101127.72;5076940;28;45680;-73
2023/05/08 08:20:21;;;;;;;;;3.33;2.00;;;;;30.55;34.45;101117.31;5075331;28;45589;-73
2023/05/08 08:22:47;;;;;;;;;3.00;2.33;;;;;32.24;31.88;101103.00;5082366;27;46587;-72
2023/05/08 08:25:14;;;;;;;;;4.00;1.67;;;;;33.71;31.12;101125.75;5074789;28;45424;-73
2023/05/08 08:27:40;;;;;;;;;0.33;0.33;;;;;33.00;30.04;101135.06;5076240;27;45361;-72
2023/05/08 08:30:06;;;;;;;;;1.00;1.00;;;;;31.61;29.76;101055.69;5075076;28;45603;-72
2023/05/08 08:32:31;;;;;;;;;1.67;0.67;;;;;32.24;31.76;101108.41;5075549;27;46272;-72
2023/05/08 08:34:57;;;;;;;;;4.00;3.67;;;;;33.91;26.71;101125.44;5076462;27;45623;-72
2023/05/08 08:37:23;;;;;;;;;1.33;1.00;;;;;33.60;25.84;101113.63;5076624;28;45448;-73
2023/05/08 08:39:48;;;;;;;;;0.67;0.00;;;;;32.43;27.46;101109.22;5075972;28;45629;-73
2023/05/08 08:42:14;;;;;;;;;0.67;0.67;;;;;32.15;28.65;101117.84;5074629;27;46398;-74
2023/05/08 08:44:40;;;;;;;;;0.00;0.00;;;;;32.18;29.29;101116.84;5073323;28;45570;-73
2023/05/08 08:47:10;;;;;;;;;1.00;1.00;;;;;32.84;27.98;101118.78;5066343;28;45574;-74
2023/05/08 08:49:41;;;;;;;;;0.00;0.00;;;;;34.33;27.68;101125.72;5071162;28;45372;-72
2023/05/08 08:52:29;;;;;;;;;2.00;1.00;;;;;35.41;24.89;101118.00;5057909;28;46916;-81
2023/05/08 08:54:56;;;;;;;;;1.00;1.00;;;;;35.92;24.55;101117.41;5073285;28;45321;-76
2023/05/08 08:57:23;;;;;;;;;1.00;1.00;;;;;35.23;24.06;101100.19;5075567;27;45524;-75
2023/05/08 08:59:49;;;;;;;;;2.00;1.33;;;;;34.78;24.43;101096.72;5073635;28;45497;-75
2023/05/08 09:02:18;;;;;;;;;2.33;1.00;;;;;34.64;24.69;101084.88;5073987;28;46606;-76
2023/05/08 09:04:44;;;;;;;;;2.00;2.00;;;;;34.29;25.03;101089.75;5073425;28;45370;-75
2023/05/08 09:07:11;;;;;;;;;1.67;1.00;;;;;34.22;26.46;101062.16;5091038;27;45447;-76
2023/05/08 09:09:43;;;;;;;;;4.33;1.00;;;;;33.91;25.74;101078.50;5074758;27;45456;-75
2023/05/08 09:12:09;;;;;;;;;2.00;2.00;;;;;33.75;26.20;101071.28;5073722;28;46618;-75
2023/05/08 09:14:35;;;;;;;;;2.00;0.00;;;;;32.67;25.68;101068.31;5072773;28;45540;-75
2023/05/08 09:17:01;;;;;;;;;2.33;0.67;;;;;31.37;27.23;101073.09;5073559;28;45627;-74
2023/05/08 09:19:27;;;;;;;;;0.00;0.00;;;;;31.25;28.07;101079.97;5075211;27;45377;-73
2023/05/08 09:21:53;;;;;;;;;1.67;0.67;;;;;31.00;27.50;101070.34;5067072;27;45477;-76
2023/05/08 09:24:19;;;;;;;;;1.67;1.67;;;;;30.36;29.52;101076.81;5068612;27;45661;-74
2023/05/08 09:26:45;;;;;;;;;0.33;0.00;;;;;29.89;30.28;101055.50;5075720;28;45521;-74
2023/05/08 09:29:21;;;;;;;;;0.00;0.00;;;;;29.44;29.78;101054.59;5074629;28;45985;-73
2023/05/08 09:31:50;;;;;;;;;3.67;1.67;;;;;28.50;30.84;101047.44;5073862;27;47929;-74
2023/05/08 09:34:23;;;;;;;;;1.67;1.33;;;;;28.07;32.35;101065.06;5075684;28;45512;-75
2023/05/08 09:36:49;;;;;;;;;1.33;1.33;;;;;27.90;32.17;101054.91;5074976;28;45368;-75
2023/05/08 09:39:23;;;;;;;;;1.00;1.00;;;;;27.66;32.61;101053.88;5071841;28;45470;-75
2023/05/08 09:42:03;;;;;;;;;2.00;1.67;;;;;27.28;33.87;101053.31;5074500;28;46696;-74
2023/05/08 09:44:49;;;;;;;;;1.00;1.00;;;;;26.98;34.17;101073.88;5075121;28;45456;-74
2023/05/08 09:47:19;;;;;;;;;3.00;3.00;;;;;26.59;34.63;101061.59;5061415;28;45502;-77
2023/05/08 09:50:05;;;;;;;;;8.67;8.67;;;;;25.94;35.18;101062.44;5073544;27;45638;-76
2023/05/08 09:52:32;;;;;;;;;6.00;4.00;;;;;25.83;35.58;101063.59;5072892;28;45641;-75
2023/05/08 09:55:09;;;;;;;;;5.33;5.00;;;;;25.27;37.03;101055.97;5069676;28;45447;-75
2023/05/08 09:57:38;;;;;;;;;3.67;3.00;;;;;25.10;37.14;101040.31;5073241;28;45516;-75
2023/05/08 10:00:08;;;;;;;;;2.00;2.00;;;;;25.05;37.17;101060.91;5074077;28;45638;-74
2023/05/08 10:02:35;;;;;;;;;4.00;2.33;;;;;24.62;37.55;101052.00;5062020;28;45662;-75
2023/05/08 10:05:01;;;;;;;;;2.00;2.00;;;;;24.21;38.02;101034.94;5074274;28;45707;-74
2023/05/08 10:07:34;;;;;;;;;2.00;2.00;;;;;24.07;38.97;101058.34;5074597;27;45441;-73
2023/05/08 10:10:05;;;;;;;;;2.67;2.00;;;;;23.43;40.51;101029.13;5074027;28;45515;-73
2023/05/08 10:12:32;;;;;;;;;2.00;1.00;;;;;23.37;40.62;101055.91;5074201;28;46571;-74
2023/05/08 10:14:58;;;;;;;;;3.00;3.00;;;;;23.27;40.68;101060.47;5063203;28;45524;-73
2023/05/08 10:17:46;;;;;;;;;6.33;6.00;;;;;23.21;41.08;101060.56;5077712;27;45421;-74
2023/05/08 10:20:14;;;;;;;;;4.00;3.00;;;;;22.87;41.17;101039.69;5058920;28;45399;-74
2023/05/08 10:22:43;;;;;;;;;5.00;3.00;;;;;22.73;42.03;101042.50;5077534;28;45547;-73
2023/05/08 10:25:15;;;;;;;;;4.00;4.00;;;;;22.83;42.02;101011.31;5078371;28;45539;-73
2023/05/08 10:27:56;;;;;;;;;5.67;5.33;;;;;23.26;41.30;101001.84;5072192;28;45621;-73
2023/05/08 10:30:24;;;;;;;;;2.00;2.00;;;;;23.68;40.75;101015.44;5074671;28;45654;-74
2023/05/08 10:32:54;;;;;;;;;4.00;2.00;;;;;23.86;40.52;101025.81;5074083;28;45532;-74
2023/05/08 10:35:20;;;;;;;;;2.33;2.00;;;;;23.90;40.92;101032.84;5067437;27;45553;-73
2023/05/08 10:37:47;;;;;;;;;3.33;3.00;;;;;23.60;41.31;101010.22;5072963;27;45527;-74
2023/05/08 10:40:17;;;;;;;;;5.67;5.33;;;;;23.60;41.61;101039.56;5073504;28;45440;-77
2023/05/08 10:42:45;;;;;;;;;2.33;2.00;;;;;23.91;40.28;101020.38;5077589;28;45778;-73
2023/05/08 10:45:11;;;;;;;;;2.00;2.00;;;;;24.58;40.40;101026.25;5074748;28;45577;-74
2023/05/08 10:48:03;;;;;;;;;2.67;1.67;;;;;25.25;39.05;101023.94;5077091;27;45539;-74
2023/05/08 10:51:03;;;;;;;;;2.00;2.00;;;;;25.31;38.26;101021.13;5075400;28;45403;-74
2023/05/08 10:53:51;;;;;;;;;3.33;2.67;;;;;25.76;37.94;101006.66;5074251;28;45725;-74
2023/05/08 10:56:16;;;;;;;;;2.00;1.00;;;;;26.05;37.72;101005.06;5074888;27;45324;-73
2023/05/08 10:58:42;;;;;;;;;2.33;2.33;;;;;26.34;37.31;101015.84;5077490;28;45615;-73
2023/05/08 11:01:07;;;;;;;;;3.00;2.00;;;;;26.64;37.08;101036.44;5078336;28;45445;-74
2023/05/08 11:03:42;;;;;;;;;2.67;2.00;;;;;26.94;36.09;101040.06;5072535;27;46119;-74
2023/05/08 11:06:08;;;;;;;;;2.00;1.33;;;;;27.32;35.99;101028.16;5076267;28;45455;-74
2023/05/08 11:08:46;;;;;;;;;2.00;2.00;;;;;27.25;34.63;101021.22;5075021;28;45605;-74
2023/05/08 11:11:39;;;;;;;;;1.00;1.00;;;;;27.01;34.84;101017.47;5076002;28;45578;-73
2023/05/08 11:14:07;;;;;;;;;3.00;3.00;;;;;27.22;35.20;101032.03;5074622;28;46749;-73
2023/05/08 11:17:02;;;;;;;;;2.00;2.00;;;;;27.40;35.10;101032.38;5075849;27;45476;-73
2023/05/08 11:19:28;;;;;;;;;2.33;2.00;;;;;26.96;34.78;101008.72;5063701;28;45575;-73
2023/05/08 11:22:18;;;;;;;;;1.00;1.00;;;;;26.81;35.46;101017.22;5078078;28;45599;-73
2023/05/08 11:24:55;;;;;;;;;2.67;1.33;;;;;26.60;35.59;101000.84;5077852;28;45508;-73
2023/05/08 11:27:50;;;;;;;;;3.00;2.00;;;;;26.37;35.20;101022.91;5090353;27;45429;-73
2023/05/08 11:30:38;;;;;;;;;2.33;2.00;;;;;25.84;36.36;101010.00;5059924;28;45353;-74
2023/05/08 11:33:03;;;;;;;;;2.00;1.67;;;;;25.68;37.03;101005.97;5065065;28;45548;-74
2023/05/08 11:35:46;;;;;;;;;2.33;2.33;;;;;25.71;35.90;100997.88;5072214;28;46316;-74